createdAt,value
2018-07-26T00:00:54.466Z,24.50
2018-07-26T00:02:31.352Z,24.00
2018-07-26T00:04:08.652Z,22.50
2018-07-26T00:05:45.394Z,20.75
2018-07-26T00:07:21.901Z,24.00
2018-07-26T00:08:59.000Z,24.25
2018-07-26T00:10:35.654Z,22.00
2018-07-26T00:12:12.775Z,23.75
2018-07-26T00:13:49.728Z,25.50
2018-07-26T00:15:32.058Z,23.00
2018-07-26T00:17:08.855Z,20.50
2018-07-26T00:18:45.493Z,26.75
2018-07-26T00:20:22.103Z,23.25
2018-07-26T00:22:00.682Z,22.25
2018-07-26T00:23:37.368Z,23.00
2018-07-26T00:25:14.010Z,19.75
2018-07-26T00:26:50.347Z,22.75
2018-07-26T00:28:27.552Z,19.75
2018-07-26T00:30:05.873Z,27.25
2018-07-26T00:31:44.128Z,22.50
2018-07-26T00:34:49.610Z,25.25
2018-07-26T00:36:26.304Z,24.00
2018-07-26T00:38:05.450Z,24.50
2018-07-26T00:39:44.763Z,24.75
2018-07-26T00:41:22.397Z,28.75
2018-07-26T00:43:00.589Z,38.25
2018-07-26T00:44:37.147Z,25.00
2018-07-26T00:46:14.122Z,24.75
2018-07-26T00:47:51.380Z,25.75
2018-07-26T00:49:28.100Z,27.50
2018-07-26T00:51:04.876Z,23.50
2018-07-26T00:52:41.694Z,25.00
2018-07-26T00:54:18.710Z,23.50
2018-07-26T00:55:56.184Z,25.00
2018-07-26T00:57:32.833Z,24.75
2018-07-26T00:59:09.831Z,25.75
2018-07-26T01:00:47.093Z,26.75
2018-07-26T01:02:26.129Z,23.25
2018-07-26T01:04:02.766Z,24.00
2018-07-26T01:05:39.383Z,27.50
2018-07-26T01:07:16.647Z,26.75
2018-07-26T01:08:53.194Z,25.50
2018-07-26T01:10:30.063Z,25.50
2018-07-26T01:12:08.367Z,22.50
2018-07-26T01:13:45.196Z,27.00
2018-07-26T01:15:22.720Z,28.25
2018-07-26T01:16:58.960Z,23.00
2018-07-26T01:18:36.243Z,26.50
2018-07-26T01:20:13.297Z,25.50
2018-07-26T01:21:49.994Z,28.00
2018-07-26T01:23:27.248Z,24.25
2018-07-26T01:25:04.683Z,23.00
2018-07-26T01:27:24.822Z,23.25
2018-07-26T01:29:01.342Z,25.50
2018-07-26T01:30:38.929Z,26.00
2018-07-26T01:32:15.924Z,25.75
2018-07-26T01:33:53.971Z,25.50
2018-07-26T01:35:31.092Z,26.25
2018-07-26T01:37:09.185Z,27.00
2018-07-26T01:38:45.747Z,25.25
2018-07-26T01:40:23.807Z,25.50
2018-07-26T01:42:00.343Z,26.00
2018-07-26T01:43:50.074Z,28.00
2018-07-26T01:45:29.175Z,28.25
2018-07-26T01:47:05.898Z,23.25
2018-07-26T01:48:43.985Z,26.50
2018-07-26T01:50:20.552Z,24.25
2018-07-26T01:51:58.595Z,27.25
2018-07-26T01:53:35.946Z,26.50
2018-07-26T01:55:12.526Z,28.00
2018-07-26T01:56:49.621Z,27.25
2018-07-26T01:58:29.235Z,27.25
2018-07-26T02:00:06.277Z,27.00
2018-07-26T02:01:45.906Z,23.50
2018-07-26T02:03:22.539Z,27.50
2018-07-26T02:04:59.585Z,27.50
2018-07-26T02:06:35.933Z,28.50
2018-07-26T02:08:13.728Z,27.25
2018-07-26T02:09:50.325Z,24.75
2018-07-26T02:11:28.070Z,26.00
2018-07-26T02:13:04.755Z,26.00
2018-07-26T02:14:41.375Z,27.75
2018-07-26T02:16:18.038Z,27.25
2018-07-26T02:17:55.985Z,29.00
2018-07-26T02:19:34.309Z,26.25
2018-07-26T02:21:11.285Z,26.50
2018-07-26T02:22:48.600Z,25.25
2018-07-26T02:24:26.292Z,27.00
2018-07-26T02:26:06.558Z,23.75
2018-07-26T02:27:44.638Z,22.75
2018-07-26T02:29:23.270Z,28.75
2018-07-26T02:31:01.792Z,27.50
2018-07-26T02:32:38.609Z,29.00
2018-07-26T02:34:19.452Z,27.50
2018-07-26T02:35:55.955Z,28.75
2018-07-26T02:37:32.542Z,28.25
2018-07-26T02:39:10.373Z,28.00
2018-07-26T02:40:47.797Z,27.75
2018-07-26T02:42:24.819Z,27.75
2018-07-26T02:44:01.796Z,29.25
2018-07-26T02:45:38.544Z,26.50
2018-07-26T02:47:15.074Z,30.00
2018-07-26T02:48:52.956Z,28.75
2018-07-26T02:50:29.974Z,29.00
2018-07-26T02:52:07.018Z,27.75
2018-07-26T02:53:43.974Z,29.75
2018-07-26T02:55:20.433Z,28.00
2018-07-26T02:56:58.943Z,29.50
2018-07-26T02:58:35.478Z,29.00
2018-07-26T03:00:13.151Z,30.25
2018-07-26T03:01:55.026Z,31.00
2018-07-26T03:03:32.639Z,30.50
2018-07-26T03:05:11.516Z,28.75
2018-07-26T03:06:48.092Z,29.75
2018-07-26T03:08:25.767Z,27.75
2018-07-26T03:10:02.838Z,26.75
2018-07-26T03:11:39.523Z,27.75
2018-07-26T03:13:16.002Z,30.25
2018-07-26T03:14:52.464Z,29.25
2018-07-26T03:16:29.252Z,30.00
2018-07-26T03:18:05.809Z,26.50
2018-07-26T03:19:44.016Z,28.00
2018-07-26T03:21:21.546Z,28.00
2018-07-26T03:22:58.469Z,28.75
2018-07-26T03:24:35.360Z,28.50
2018-07-26T03:26:11.921Z,29.00
2018-07-26T03:27:48.461Z,29.00
2018-07-26T03:29:25.348Z,31.25
2018-07-26T03:31:05.506Z,30.50
2018-07-26T03:32:44.149Z,28.50
2018-07-26T03:34:20.664Z,28.25
2018-07-26T03:35:58.435Z,28.50
2018-07-26T03:37:34.583Z,29.00
2018-07-26T03:39:11.151Z,29.75
2018-07-26T03:40:48.969Z,31.25
2018-07-26T03:42:26.970Z,29.00
2018-07-26T03:44:03.542Z,28.00
2018-07-26T03:45:41.696Z,28.75
2018-07-26T03:47:19.628Z,31.75
2018-07-26T03:48:58.656Z,29.75
2018-07-26T03:50:47.375Z,30.00
2018-07-26T03:52:23.937Z,34.00
2018-07-26T03:54:01.831Z,30.00
2018-07-26T03:55:39.030Z,43.25
2018-07-26T03:57:15.678Z,31.00
2018-07-26T03:58:52.970Z,30.75
2018-07-26T04:00:33.541Z,29.25
2018-07-26T04:02:12.079Z,33.00
2018-07-26T04:03:50.657Z,32.50
2018-07-26T04:05:27.403Z,31.00
2018-07-26T04:07:09.605Z,33.25
2018-07-26T04:08:46.786Z,29.25
2018-07-26T04:10:23.345Z,30.50
2018-07-26T04:12:00.571Z,31.25
2018-07-26T04:13:37.715Z,30.50
2018-07-26T04:15:17.569Z,30.50
2018-07-26T04:16:54.106Z,28.25
2018-07-26T04:18:31.565Z,30.00
2018-07-26T04:20:13.547Z,28.75
2018-07-26T04:21:53.652Z,29.00
2018-07-26T04:23:32.876Z,29.00
2018-07-26T04:25:14.405Z,29.75
2018-07-26T04:26:54.299Z,30.00
2018-07-26T04:28:34.581Z,28.75
2018-07-26T04:32:16.653Z,29.75
2018-07-26T04:33:53.525Z,31.00
2018-07-26T04:35:30.945Z,31.75
2018-07-26T04:37:07.726Z,31.75
2018-07-26T04:38:45.641Z,30.00
2018-07-26T04:40:22.093Z,31.75
2018-07-26T04:41:58.429Z,38.00
2018-07-26T04:43:35.342Z,31.75
2018-07-26T04:45:15.469Z,29.25
2018-07-26T04:46:52.786Z,29.50
2018-07-26T04:48:30.664Z,29.50
2018-07-26T04:50:07.921Z,31.00
2018-07-26T04:51:45.272Z,29.50
2018-07-26T04:53:29.781Z,30.25
2018-07-26T04:55:06.962Z,31.00
2018-07-26T04:56:44.637Z,31.00
2018-07-26T04:58:21.542Z,31.75
2018-07-26T05:00:00.678Z,32.00
2018-07-26T05:01:40.761Z,30.25
2018-07-26T05:03:17.539Z,31.25
2018-07-26T05:04:54.426Z,31.00
2018-07-26T05:06:34.511Z,29.00
2018-07-26T05:08:13.864Z,30.25
2018-07-26T05:09:52.711Z,31.50
2018-07-26T05:11:30.059Z,33.25
2018-07-26T05:13:28.047Z,33.25
2018-07-26T05:15:12.987Z,32.00
2018-07-26T05:16:49.941Z,30.25
2018-07-26T05:18:27.521Z,31.75
2018-07-26T05:20:04.224Z,32.50
2018-07-26T05:21:44.618Z,37.50
2018-07-26T05:23:23.748Z,31.50
2018-07-26T05:25:00.798Z,33.25
2018-07-26T05:26:38.400Z,31.00
2018-07-26T05:28:15.367Z,30.50
2018-07-26T05:29:52.125Z,29.25
2018-07-26T05:31:28.865Z,29.00
2018-07-26T05:33:05.529Z,31.50
2018-07-26T05:34:43.429Z,29.75
2018-07-26T05:36:25.015Z,35.00
2018-07-26T05:38:20.383Z,31.25
2018-07-26T05:40:07.099Z,30.75
2018-07-26T05:41:44.597Z,31.75
2018-07-26T05:43:21.071Z,32.50
2018-07-26T05:44:57.812Z,31.00
2018-07-26T05:46:36.457Z,30.50
2018-07-26T05:48:13.705Z,32.00
2018-07-26T05:49:50.267Z,30.00
2018-07-26T05:51:29.581Z,31.75
2018-07-26T05:53:06.740Z,33.00
2018-07-26T05:54:44.482Z,31.00
2018-07-26T05:56:21.937Z,31.00
2018-07-26T05:58:00.049Z,31.00
2018-07-26T05:59:37.178Z,31.75
2018-07-26T06:01:13.987Z,31.50
2018-07-26T06:02:50.638Z,31.25
2018-07-26T06:04:28.579Z,31.00
2018-07-26T06:06:05.998Z,31.25
2018-07-26T06:07:43.916Z,30.50
2018-07-26T06:09:20.694Z,31.00
2018-07-26T06:10:58.323Z,31.00
2018-07-26T06:12:39.229Z,31.50
2018-07-26T06:14:17.243Z,31.00
2018-07-26T06:15:57.020Z,34.50
2018-07-26T06:17:37.245Z,31.00
2018-07-26T06:19:14.332Z,31.00
2018-07-26T06:20:51.785Z,31.00
2018-07-26T06:22:28.317Z,32.00
2018-07-26T06:24:06.149Z,30.75
2018-07-26T06:25:45.750Z,29.00
2018-07-26T06:27:23.555Z,29.25
2018-07-26T06:29:01.438Z,31.00
2018-07-26T06:32:33.129Z,28.25
2018-07-26T06:34:13.463Z,30.25
2018-07-26T06:35:50.705Z,30.75
2018-07-26T06:37:29.832Z,31.25
2018-07-26T06:39:15.097Z,38.50
2018-07-26T06:40:51.973Z,31.00
2018-07-26T06:42:28.971Z,29.00
2018-07-26T06:44:14.435Z,31.50
2018-07-26T06:45:54.836Z,33.50
2018-07-26T06:47:33.852Z,32.00
2018-07-26T06:49:12.967Z,32.00
2018-07-26T06:50:52.100Z,29.00
2018-07-26T06:52:31.325Z,29.00
2018-07-26T06:54:15.066Z,29.00
2018-07-26T06:55:52.706Z,30.25
2018-07-26T06:57:42.513Z,28.75
2018-07-26T07:02:04.128Z,32.00
2018-07-26T07:03:42.749Z,30.50
2018-07-26T07:05:20.066Z,32.00
2018-07-26T07:06:58.181Z,32.00
2018-07-26T07:08:34.947Z,30.75
2018-07-26T07:10:12.070Z,30.50
2018-07-26T07:11:48.771Z,29.00
2018-07-26T07:13:25.763Z,28.25
2018-07-26T07:15:06.411Z,28.00
2018-07-26T07:16:45.267Z,30.25
2018-07-26T07:18:28.577Z,31.75
2018-07-26T07:20:07.419Z,30.50
2018-07-26T07:21:47.331Z,30.75
2018-07-26T07:23:25.174Z,30.00
2018-07-26T07:25:02.485Z,29.25
2018-07-26T07:26:44.456Z,25.50
2018-07-26T07:28:24.589Z,27.50
2018-07-26T07:30:06.745Z,26.50
2018-07-26T07:31:46.649Z,25.25
2018-07-26T07:33:25.122Z,27.25
2018-07-26T07:35:02.315Z,24.75
2018-07-26T07:36:38.946Z,24.75
2018-07-26T07:38:17.012Z,23.75
2018-07-26T07:39:54.406Z,26.00
2018-07-26T07:41:36.001Z,23.50
2018-07-26T07:43:12.688Z,21.50
2018-07-26T07:44:51.711Z,21.00
2018-07-26T07:46:29.466Z,22.00
2018-07-26T07:48:12.235Z,21.75
2018-07-26T07:49:51.762Z,18.25
2018-07-26T07:51:28.818Z,20.25
2018-07-26T07:53:08.081Z,21.00
2018-07-26T07:54:45.601Z,20.25
2018-07-26T07:56:23.000Z,20.50
2018-07-26T07:57:59.526Z,19.50
2018-07-26T07:59:36.041Z,18.25
2018-07-26T08:01:13.839Z,20.50
2018-07-26T08:02:51.927Z,20.25
2018-07-26T08:04:28.433Z,19.75
2018-07-26T08:06:04.989Z,20.25
2018-07-26T08:07:43.601Z,21.00
2018-07-26T08:09:20.813Z,23.00
2018-07-26T08:10:57.306Z,17.50
2018-07-26T08:12:36.133Z,18.75
2018-07-26T08:14:13.166Z,20.25
2018-07-26T08:15:51.204Z,18.75
2018-07-26T08:17:28.876Z,19.50
2018-07-26T08:19:06.371Z,21.00
2018-07-26T08:20:44.016Z,20.75
2018-07-26T08:22:21.291Z,18.50
2018-07-26T08:23:57.813Z,45.25
2018-07-26T08:25:35.355Z,19.75
2018-07-26T08:27:12.837Z,17.25
2018-07-26T08:28:49.403Z,19.25
2018-07-26T08:30:29.976Z,18.50
2018-07-26T08:32:08.900Z,16.25
2018-07-26T08:33:47.602Z,21.25
2018-07-26T08:35:25.999Z,17.00
2018-07-26T08:37:04.172Z,18.50
2018-07-26T08:38:40.870Z,16.00
2018-07-26T08:40:18.913Z,16.00
2018-07-26T08:43:29.391Z,14.25
2018-07-26T08:45:08.228Z,15.50
2018-07-26T08:46:46.006Z,15.50
2018-07-26T08:48:27.839Z,15.50
2018-07-26T08:50:04.645Z,13.75
2018-07-26T08:51:41.169Z,17.75
2018-07-26T08:53:18.393Z,15.25
2018-07-26T08:54:55.345Z,17.25
2018-07-26T08:56:33.801Z,14.75
2018-07-26T08:58:11.354Z,17.00
2018-07-26T08:59:48.535Z,17.75
2018-07-26T09:01:26.883Z,17.00
2018-07-26T09:03:06.635Z,15.75
2018-07-26T09:04:45.903Z,23.50
2018-07-26T09:06:30.166Z,16.50
2018-07-26T09:08:10.221Z,23.00
2018-07-26T09:09:55.662Z,15.00
2018-07-26T09:11:35.433Z,16.50
2018-07-26T09:13:13.613Z,20.50
2018-07-26T09:14:50.650Z,16.25
2018-07-26T09:16:31.080Z,14.50
2018-07-26T09:18:09.063Z,13.75
2018-07-26T09:19:46.054Z,17.00
2018-07-26T09:21:24.207Z,19.75
2018-07-26T09:23:02.733Z,16.00
2018-07-26T09:24:44.632Z,16.25
2018-07-26T09:26:27.149Z,17.50
2018-07-26T09:28:26.142Z,16.50
2018-07-26T09:30:06.403Z,17.00
2018-07-26T09:31:43.884Z,18.75
2018-07-26T09:33:22.174Z,19.00
2018-07-26T09:34:59.452Z,17.00
2018-07-26T09:36:36.014Z,17.00
2018-07-26T09:38:12.907Z,14.25
2018-07-26T09:39:52.582Z,17.75
2018-07-26T09:41:35.013Z,20.00
2018-07-26T09:43:14.304Z,17.00
2018-07-26T09:45:01.425Z,16.00
2018-07-26T09:46:41.948Z,17.50
2018-07-26T09:48:18.860Z,16.00
2018-07-26T09:49:58.612Z,14.25
2018-07-26T09:51:42.313Z,16.25
2018-07-26T09:53:27.344Z,17.50
2018-07-26T09:55:12.096Z,14.25
2018-07-26T09:56:52.290Z,15.25
2018-07-26T09:58:30.327Z,16.25
2018-07-26T10:00:09.903Z,17.00
2018-07-26T10:01:50.327Z,16.25
2018-07-26T10:03:34.018Z,15.25
2018-07-26T10:05:22.723Z,15.00
2018-07-26T10:07:02.344Z,23.50
2018-07-26T10:08:41.528Z,17.75
2018-07-26T10:10:21.650Z,14.50
2018-07-26T10:12:05.265Z,18.75
2018-07-26T10:13:52.153Z,17.25
2018-07-26T10:15:37.690Z,16.25
2018-07-26T10:17:20.493Z,16.25
2018-07-26T10:18:59.996Z,16.00
2018-07-26T10:20:46.571Z,14.00
2018-07-26T10:22:28.633Z,17.50
2018-07-26T10:24:12.163Z,15.75
2018-07-26T10:25:57.378Z,16.00
2018-07-26T10:27:40.864Z,13.00
2018-07-26T10:29:22.437Z,17.50
2018-07-26T10:31:14.400Z,15.00
2018-07-26T10:32:55.043Z,18.75
2018-07-26T10:34:51.639Z,14.25
2018-07-26T10:36:34.965Z,16.25
2018-07-26T10:38:14.668Z,14.75
2018-07-26T10:39:52.548Z,16.00
2018-07-26T10:41:38.484Z,16.50
2018-07-26T10:43:17.587Z,14.50
2018-07-26T10:44:56.777Z,16.25
2018-07-26T10:46:35.485Z,15.25
2018-07-26T10:48:13.994Z,13.50
2018-07-26T10:49:55.241Z,13.25
2018-07-26T10:53:27.552Z,16.00
2018-07-26T10:55:07.397Z,15.25
2018-07-26T10:56:49.168Z,19.75
2018-07-26T10:58:29.714Z,14.00
2018-07-26T11:00:10.423Z,14.75
2018-07-26T11:01:50.026Z,14.25
2018-07-26T11:03:30.568Z,11.00
2018-07-26T11:05:14.527Z,14.75
2018-07-26T11:06:58.296Z,17.25
2018-07-26T11:08:42.711Z,15.00
2018-07-26T11:10:20.279Z,17.00
2018-07-26T11:12:03.786Z,15.75
2018-07-26T11:13:46.521Z,15.00
2018-07-26T11:15:30.558Z,15.75
2018-07-26T11:17:09.637Z,23.50
2018-07-26T11:18:48.252Z,17.50
2018-07-26T11:20:28.717Z,16.50
2018-07-26T11:22:10.966Z,17.25
2018-07-26T11:23:49.267Z,15.75
2018-07-26T11:25:26.244Z,20.00
2018-07-26T11:27:08.687Z,15.00
2018-07-26T11:28:46.495Z,14.00
2018-07-26T11:30:25.627Z,18.00
2018-07-26T11:32:04.493Z,14.25
2018-07-26T11:33:44.874Z,14.50
2018-07-26T11:35:24.838Z,14.25
2018-07-26T11:37:03.251Z,15.75
2018-07-26T11:38:40.631Z,16.50
2018-07-26T11:40:17.395Z,14.00
2018-07-26T11:41:55.949Z,15.25
2018-07-26T11:43:33.478Z,17.75
2018-07-26T11:45:14.295Z,15.00
2018-07-26T11:46:51.278Z,14.50
2018-07-26T11:48:29.654Z,14.75
2018-07-26T11:50:07.060Z,14.50
2018-07-26T11:51:47.307Z,14.00
2018-07-26T11:53:28.902Z,15.50
2018-07-26T11:55:06.662Z,12.00
2018-07-26T11:56:44.286Z,11.25
2018-07-26T11:58:24.504Z,10.00
2018-07-26T12:00:03.306Z,14.50
2018-07-26T12:02:12.247Z,14.75
2018-07-26T12:03:52.620Z,14.00
2018-07-26T12:05:29.176Z,16.00
2018-07-26T12:07:08.225Z,13.00
2018-07-26T12:08:48.514Z,15.00
2018-07-26T12:10:25.747Z,12.25
2018-07-26T12:12:04.420Z,13.25
2018-07-26T12:13:41.405Z,13.00
2018-07-26T12:15:19.480Z,13.00
2018-07-26T12:16:59.255Z,15.75
2018-07-26T12:18:38.385Z,15.50
2018-07-26T12:20:15.506Z,14.00
2018-07-26T12:23:37.370Z,14.25
2018-07-26T12:25:17.015Z,12.75
2018-07-26T12:26:55.848Z,15.25
2018-07-26T12:28:32.373Z,15.50
2018-07-26T12:30:17.177Z,14.25
2018-07-26T12:33:33.477Z,14.00
2018-07-26T12:35:11.559Z,12.75
2018-07-26T12:36:48.085Z,13.25
2018-07-26T12:38:27.946Z,14.00
2018-07-26T12:40:05.635Z,14.75
2018-07-26T12:41:42.229Z,15.25
2018-07-26T12:43:18.830Z,14.25
2018-07-26T12:44:55.351Z,16.00
2018-07-26T12:46:36.091Z,14.75
2018-07-26T12:48:14.780Z,13.75
2018-07-26T12:49:52.319Z,14.00
2018-07-26T12:51:29.434Z,14.75
2018-07-26T12:53:06.720Z,13.75
2018-07-26T12:54:48.082Z,15.00
2018-07-26T12:56:37.393Z,14.00
2018-07-26T12:58:21.090Z,14.50
2018-07-26T13:00:05.508Z,15.50
2018-07-26T13:01:44.052Z,13.75
2018-07-26T13:03:21.065Z,15.00
2018-07-26T13:04:58.968Z,12.00
2018-07-26T13:06:37.193Z,15.50
2018-07-26T13:08:14.307Z,16.00
2018-07-26T13:09:50.892Z,14.50
2018-07-26T13:11:29.270Z,13.75
2018-07-26T13:13:05.922Z,15.50
2018-07-26T13:14:43.502Z,13.00
2018-07-26T13:16:20.486Z,14.25
2018-07-26T13:17:58.424Z,14.75
2018-07-26T13:19:35.033Z,13.25
2018-07-26T13:21:11.579Z,14.00
2018-07-26T13:22:48.555Z,14.00
2018-07-26T13:24:30.507Z,13.50
2018-07-26T13:26:07.288Z,13.75
2018-07-26T13:27:44.853Z,13.00
2018-07-26T13:29:21.520Z,13.25
2018-07-26T13:30:59.180Z,15.50
2018-07-26T13:32:35.886Z,14.25
2018-07-26T13:34:14.042Z,12.75
2018-07-26T13:35:53.199Z,14.75
2018-07-26T13:37:29.816Z,15.00
2018-07-26T13:39:11.629Z,13.75
2018-07-26T13:40:48.202Z,14.75
2018-07-26T13:42:25.917Z,14.00
2018-07-26T13:44:03.790Z,15.00
2018-07-26T13:45:41.439Z,15.25
2018-07-26T13:47:19.032Z,17.00
2018-07-26T13:48:57.700Z,14.50
2018-07-26T13:50:34.995Z,14.75
2018-07-26T13:52:11.535Z,13.50
2018-07-26T13:53:49.336Z,11.25
2018-07-26T13:55:25.881Z,8.75
2018-07-26T13:57:04.559Z,12.00
2018-07-26T13:58:51.483Z,14.75
2018-07-26T14:00:30.481Z,14.50
2018-07-26T14:02:09.522Z,16.75
2018-07-26T14:03:49.306Z,16.25
2018-07-26T14:05:28.412Z,13.25
2018-07-26T14:07:11.535Z,14.00
2018-07-26T14:08:52.376Z,12.75
2018-07-26T14:10:30.675Z,12.50
2018-07-26T14:12:08.304Z,12.25
2018-07-26T14:13:47.257Z,15.50
2018-07-26T14:15:24.699Z,12.75
2018-07-26T14:17:03.318Z,14.75
2018-07-26T14:18:42.391Z,15.25
2018-07-26T14:20:47.468Z,15.00
2018-07-26T14:22:25.304Z,14.00
2018-07-26T14:24:04.385Z,15.50
2018-07-26T14:25:42.561Z,14.25
2018-07-26T14:27:22.411Z,12.00
2018-07-26T14:29:01.816Z,14.00
2018-07-26T14:30:46.677Z,13.25
2018-07-26T14:34:08.725Z,13.25
2018-07-26T14:35:47.005Z,15.50
2018-07-26T14:37:24.961Z,14.00
2018-07-26T14:39:04.299Z,13.50
2018-07-26T14:40:41.504Z,12.00
2018-07-26T14:42:19.682Z,13.00
2018-07-26T14:43:56.858Z,12.75
2018-07-26T14:45:35.262Z,12.25
2018-07-26T14:47:14.264Z,13.50
2018-07-26T14:48:54.784Z,13.50
2018-07-26T14:50:36.731Z,11.50
2018-07-26T14:52:17.451Z,13.00
2018-07-26T14:53:56.457Z,13.25
2018-07-26T14:55:34.562Z,13.75
2018-07-26T14:57:15.155Z,15.25
2018-07-26T14:58:58.898Z,13.00
2018-07-26T15:00:38.942Z,12.50
2018-07-26T15:02:19.165Z,11.50
2018-07-26T15:03:57.406Z,13.50
2018-07-26T15:05:38.375Z,12.50
2018-07-26T15:07:15.591Z,13.50
2018-07-26T15:08:55.138Z,12.00
2018-07-26T15:10:32.351Z,12.25
2018-07-26T15:12:09.402Z,13.00
2018-07-26T15:13:49.246Z,13.00
2018-07-26T15:15:28.691Z,13.00
2018-07-26T15:17:06.825Z,12.25
2018-07-26T15:18:59.561Z,15.75
2018-07-26T15:20:36.299Z,12.50
2018-07-26T15:22:14.732Z,12.00
2018-07-26T15:23:53.275Z,12.50
2018-07-26T15:25:32.595Z,12.00
2018-07-26T15:27:10.697Z,11.75
2018-07-26T15:28:47.182Z,11.75
2018-07-26T15:30:27.657Z,12.50
2018-07-26T15:32:05.071Z,11.00
2018-07-26T15:33:41.719Z,11.25
2018-07-26T15:35:18.957Z,9.50
2018-07-26T15:36:55.815Z,11.50
2018-07-26T15:38:35.639Z,6.25
2018-07-26T15:40:13.866Z,12.50
2018-07-26T15:41:50.484Z,9.00
2018-07-26T15:43:27.945Z,8.25
2018-07-26T15:45:05.957Z,8.25
2018-07-26T15:46:43.090Z,8.75
2018-07-26T15:48:22.007Z,6.75
2018-07-26T15:49:59.333Z,11.50
2018-07-26T15:51:38.532Z,9.00
2018-07-26T15:53:16.651Z,8.50
2018-07-26T15:54:55.365Z,10.25
2018-07-26T15:56:33.258Z,12.00
2018-07-26T15:58:14.589Z,9.00
2018-07-26T15:59:53.616Z,7.25
2018-07-26T16:01:31.443Z,8.00
2018-07-26T16:03:09.514Z,9.00
2018-07-26T16:04:46.526Z,9.75
2018-07-26T16:06:24.943Z,8.00
2018-07-26T16:08:03.542Z,11.75
2018-07-26T16:09:40.931Z,9.00
2018-07-26T16:11:18.792Z,9.00
2018-07-26T16:13:00.413Z,9.50
2018-07-26T16:14:42.478Z,8.00
2018-07-26T16:16:21.009Z,7.75
2018-07-26T16:17:58.198Z,8.50
2018-07-26T16:19:35.163Z,7.50
2018-07-26T16:21:12.661Z,7.75
2018-07-26T16:22:50.052Z,9.50
2018-07-26T16:24:31.174Z,8.25
2018-07-26T16:26:12.226Z,10.50
2018-07-26T16:27:51.637Z,8.75
2018-07-26T16:29:29.508Z,8.00
2018-07-26T16:32:42.826Z,8.00
2018-07-26T16:34:21.972Z,9.25
2018-07-26T16:36:01.083Z,9.25
2018-07-26T16:37:39.631Z,7.75
2018-07-26T16:39:16.577Z,8.25
2018-07-26T16:40:53.613Z,9.00
2018-07-26T16:42:30.253Z,8.50
2018-07-26T16:44:07.525Z,8.75
2018-07-26T16:45:44.253Z,8.25
2018-07-26T16:47:22.230Z,10.00
2018-07-26T16:49:00.394Z,8.50
2018-07-26T16:50:38.541Z,8.75
2018-07-26T16:52:15.234Z,9.00
2018-07-26T16:53:52.078Z,7.75
2018-07-26T16:55:28.703Z,9.75
2018-07-26T16:57:07.108Z,8.50
2018-07-26T16:58:46.256Z,10.00
2018-07-26T17:00:25.804Z,9.50
2018-07-26T17:02:02.417Z,10.25
2018-07-26T17:03:40.920Z,11.50
2018-07-26T17:05:17.733Z,9.50
2018-07-26T17:06:55.317Z,10.50
2018-07-26T17:08:36.632Z,11.00
2018-07-26T17:10:13.293Z,12.25
2018-07-26T17:11:52.229Z,11.50
2018-07-26T17:13:29.537Z,13.00
2018-07-26T17:15:08.672Z,12.50
2018-07-26T17:16:45.565Z,11.75
2018-07-26T17:18:23.081Z,17.00
2018-07-26T17:20:01.206Z,13.00
2018-07-26T17:21:37.783Z,14.00
2018-07-26T17:23:16.167Z,14.00
2018-07-26T17:24:53.508Z,12.25
2018-07-26T17:26:34.453Z,12.50
2018-07-26T17:28:11.374Z,13.25
2018-07-26T17:29:51.045Z,16.50
2018-07-26T17:31:29.281Z,15.00
2018-07-26T17:33:10.654Z,12.25
2018-07-26T17:34:47.492Z,11.50
2018-07-26T17:36:25.539Z,13.00
2018-07-26T17:38:02.134Z,13.75
2018-07-26T17:39:38.845Z,13.75
2018-07-26T17:41:16.418Z,13.75
2018-07-26T17:42:53.496Z,15.00
2018-07-26T17:44:30.024Z,13.50
2018-07-26T17:46:06.917Z,13.25
2018-07-26T17:47:44.818Z,18.75
2018-07-26T17:49:22.912Z,16.75
2018-07-26T17:50:59.568Z,14.25
2018-07-26T17:52:37.591Z,17.75
2018-07-26T17:54:16.898Z,17.25
2018-07-26T17:55:55.940Z,15.75
2018-07-26T17:57:34.901Z,13.25
2018-07-26T17:59:13.521Z,16.00
2018-07-26T18:00:51.502Z,15.25
2018-07-26T18:02:29.524Z,16.00
2018-07-26T18:04:07.310Z,17.50
2018-07-26T18:05:47.482Z,28.75
2018-07-26T18:07:25.955Z,16.00
2018-07-26T18:09:03.606Z,13.50
2018-07-26T18:10:40.930Z,16.50
2018-07-26T18:12:20.358Z,12.25
2018-07-26T18:13:58.419Z,14.00
2018-07-26T18:15:39.221Z,23.00
2018-07-26T18:17:19.600Z,14.00
2018-07-26T18:18:56.241Z,15.00
2018-07-26T18:20:33.595Z,14.00
2018-07-26T18:22:40.986Z,17.50
2018-07-26T18:24:17.519Z,18.75
2018-07-26T18:25:56.633Z,17.25
2018-07-26T18:27:35.849Z,16.75
2018-07-26T18:29:13.395Z,18.00
2018-07-26T18:30:50.779Z,16.50
2018-07-26T18:32:27.417Z,22.50
2018-07-26T18:34:06.370Z,28.50
2018-07-26T18:35:43.525Z,20.00
2018-07-26T18:37:23.030Z,21.75
2018-07-26T18:39:02.166Z,21.00
2018-07-26T18:40:39.112Z,17.50
2018-07-26T18:42:16.925Z,21.25
2018-07-26T18:45:37.992Z,21.25
2018-07-26T18:47:16.738Z,20.50
2018-07-26T18:48:53.946Z,19.50
2018-07-26T18:50:30.393Z,23.00
2018-07-26T18:52:07.651Z,19.25
2018-07-26T18:53:44.228Z,22.00
2018-07-26T18:55:23.213Z,22.00
2018-07-26T18:56:59.787Z,24.25
2018-07-26T18:58:36.935Z,25.25
2018-07-26T19:00:15.164Z,20.00
2018-07-26T19:01:51.894Z,19.25
2018-07-26T19:03:29.301Z,20.25
2018-07-26T19:05:09.515Z,22.50
2018-07-26T19:06:46.885Z,24.50
2018-07-26T19:08:23.368Z,24.25
2018-07-26T19:10:01.804Z,24.75
2018-07-26T19:11:39.100Z,22.00
2018-07-26T19:13:15.649Z,20.00
2018-07-26T19:14:53.120Z,20.25
2018-07-26T19:16:31.925Z,23.00
2018-07-26T19:18:09.795Z,21.75
2018-07-26T19:19:47.149Z,22.75
2018-07-26T19:21:24.583Z,26.50
2018-07-26T19:23:02.963Z,20.75
2018-07-26T19:24:42.731Z,22.25
2018-07-26T19:26:19.830Z,21.00
2018-07-26T19:27:56.549Z,22.25
2018-07-26T19:29:35.341Z,23.25
2018-07-26T19:31:14.444Z,25.25
2018-07-26T19:32:54.690Z,24.25
2018-07-26T19:34:33.608Z,24.50
2018-07-26T19:36:13.519Z,22.75
2018-07-26T19:37:51.685Z,20.25
2018-07-26T19:39:28.442Z,22.25
2018-07-26T19:41:05.840Z,21.00
2018-07-26T19:42:43.481Z,17.00
2018-07-26T19:44:23.878Z,22.75
2018-07-26T19:46:01.822Z,21.50
2018-07-26T19:47:39.337Z,20.00
2018-07-26T19:49:17.381Z,21.50
2018-07-26T19:50:56.099Z,18.00
2018-07-26T19:52:33.324Z,18.00
2018-07-26T19:54:10.583Z,19.50
2018-07-26T19:55:49.905Z,23.00
2018-07-26T19:57:28.770Z,24.25
2018-07-26T19:59:09.186Z,17.00
2018-07-26T20:00:53.292Z,18.50
2018-07-26T20:02:31.863Z,18.75
2018-07-26T20:04:16.557Z,18.00
2018-07-26T20:05:55.770Z,17.50
2018-07-26T20:07:32.466Z,17.75
2018-07-26T20:09:11.460Z,20.50
2018-07-26T20:10:47.966Z,16.50
2018-07-26T20:12:25.949Z,15.00
2018-07-26T20:14:10.304Z,16.50
2018-07-26T20:15:48.007Z,14.00
2018-07-26T20:17:25.570Z,16.00
2018-07-26T20:19:03.434Z,17.00
2018-07-26T20:20:44.404Z,15.00
2018-07-26T20:22:22.649Z,14.75
2018-07-26T20:23:59.381Z,13.50
2018-07-26T20:25:40.616Z,17.50
2018-07-26T20:27:21.381Z,15.75
2018-07-26T20:29:00.497Z,15.00
2018-07-26T20:30:37.085Z,13.75
2018-07-26T20:32:13.902Z,13.50
2018-07-26T20:33:53.063Z,15.75
2018-07-26T20:35:30.415Z,15.75
2018-07-26T20:37:07.096Z,14.50
2018-07-26T20:38:45.888Z,14.00
2018-07-26T20:40:24.129Z,14.75
2018-07-26T20:42:00.642Z,15.00
2018-07-26T20:43:37.943Z,15.25
2018-07-26T20:45:18.602Z,14.00
2018-07-26T20:46:56.532Z,14.75
2018-07-26T20:48:34.133Z,13.00
2018-07-26T20:50:11.018Z,14.25
2018-07-26T20:51:47.706Z,14.75
2018-07-26T20:53:25.888Z,15.25
2018-07-26T20:55:04.956Z,13.75
2018-07-26T20:56:42.535Z,13.50
2018-07-26T20:58:19.984Z,13.25
2018-07-26T20:59:59.568Z,14.00
2018-07-26T21:01:36.560Z,13.00
2018-07-26T21:03:14.605Z,13.00
2018-07-26T21:04:55.310Z,13.00
2018-07-26T21:06:35.459Z,13.50
2018-07-26T21:09:43.277Z,19.25
2018-07-26T21:11:20.485Z,13.00
2018-07-26T21:12:58.771Z,12.50
2018-07-26T21:14:36.319Z,14.00
2018-07-26T21:16:13.473Z,12.75
2018-07-26T21:17:50.748Z,12.50
2018-07-26T21:19:27.724Z,13.75
2018-07-26T21:21:05.345Z,13.75
2018-07-26T21:22:47.296Z,13.50
2018-07-26T21:24:31.217Z,14.25
2018-07-26T21:26:09.355Z,14.00
2018-07-26T21:27:46.932Z,15.00
2018-07-26T21:29:24.267Z,15.00
2018-07-26T21:31:06.297Z,14.50
2018-07-26T21:32:47.213Z,14.75
2018-07-26T21:34:23.947Z,16.50
2018-07-26T21:36:03.593Z,18.00
2018-07-26T21:37:41.246Z,14.75